createdAt,value
2022-12-16T00:04:21.385Z,100693.31
2022-12-16T00:09:24.201Z,100691.66
2022-12-16T00:14:29.174Z,100707.69
2022-12-16T00:19:32.617Z,100703.19
2022-12-16T00:24:35.420Z,100703.19
2022-12-16T00:29:39.545Z,100700.94
2022-12-16T00:34:42.397Z,100705.78
2022-12-16T00:39:45.191Z,100709.16
2022-12-16T00:44:49.360Z,100699.91
2022-12-16T00:49:52.165Z,100709.47
2022-12-16T00:54:55.068Z,100707.34
2022-12-16T00:59:59.202Z,100714.94
2022-12-16T01:05:02.098Z,100722.41
2022-12-16T01:10:06.363Z,100732.38
2022-12-16T01:15:13.091Z,100730.53
2022-12-16T01:20:15.873Z,100746.00
2022-12-16T01:25:18.776Z,100739.09
2022-12-16T01:30:24.245Z,100748.91
2022-12-16T01:35:54.786Z,100747.97
2022-12-16T01:40:51.566Z,100761.28
2022-12-16T01:46:03.439Z,100762.88
2022-12-16T01:51:09.387Z,100763.59
2022-12-16T01:56:15.516Z,100760.69
2022-12-16T02:01:19.798Z,100762.13
2022-12-16T02:06:22.704Z,100763.13
2022-12-16T02:11:40.383Z,100769.38
2022-12-16T02:16:52.184Z,100771.63
2022-12-16T02:22:07.542Z,100773.44
2022-12-16T02:27:40.485Z,100770.56
2022-12-16T02:32:54.656Z,100762.22
2022-12-16T02:38:06.639Z,100769.13
2022-12-16T02:43:17.219Z,100773.13
2022-12-16T02:48:21.487Z,100777.09
2022-12-16T02:53:24.562Z,100773.09
2022-12-16T02:58:37.036Z,100784.00
2022-12-16T03:03:47.146Z,100780.72
2022-12-16T03:08:54.317Z,100780.72
2022-12-16T03:13:58.702Z,100779.25
2022-12-16T03:19:08.138Z,100783.72
2022-12-16T03:24:13.778Z,100789.84
2022-12-16T03:29:23.563Z,100794.59
2022-12-16T03:34:34.395Z,100793.88
2022-12-16T03:39:42.981Z,100797.66
2022-12-16T03:44:48.847Z,100790.97
2022-12-16T03:49:53.002Z,100796.84
2022-12-16T03:54:55.839Z,100801.94
2022-12-16T03:59:59.040Z,100805.69
2022-12-16T04:05:03.163Z,100811.81
2022-12-16T04:10:07.397Z,100821.22
2022-12-16T04:15:28.577Z,100821.25
2022-12-16T04:20:52.015Z,100824.44
2022-12-16T04:25:57.898Z,100831.56
2022-12-16T04:31:00.898Z,100838.00
2022-12-16T04:36:23.421Z,100845.94
2022-12-16T04:41:43.516Z,100843.28
2022-12-16T04:47:03.852Z,100848.81
2022-12-16T04:52:25.773Z,100848.66
2022-12-16T04:57:46.186Z,100855.91
2022-12-16T05:03:07.641Z,100862.63
2022-12-16T05:08:29.291Z,100854.75
2022-12-16T05:13:49.603Z,100861.66
2022-12-16T05:19:10.167Z,100868.78
2022-12-16T05:24:33.660Z,100874.09
2022-12-16T05:29:54.112Z,100881.97
2022-12-16T05:35:14.545Z,100891.69
2022-12-16T05:40:36.362Z,100894.88
2022-12-16T05:45:58.110Z,100901.38
2022-12-16T05:51:18.182Z,100903.84
2022-12-16T05:56:39.991Z,100904.31
2022-12-16T06:02:00.234Z,100910.78
2022-12-16T06:07:20.542Z,100917.16
2022-12-16T06:12:42.539Z,100919.88
2022-12-16T06:18:09.629Z,100929.22
2022-12-16T06:23:29.999Z,100943.47
2022-12-16T06:28:51.450Z,100939.44
2022-12-16T06:34:12.066Z,100952.19
2022-12-16T06:39:33.609Z,100957.91
2022-12-16T06:44:56.373Z,100967.38
2022-12-16T06:50:17.183Z,100971.38
2022-12-16T06:55:37.369Z,100973.69
2022-12-16T07:00:59.315Z,100978.09
2022-12-16T07:06:19.402Z,100974.25
2022-12-16T07:11:39.750Z,100986.63
2022-12-16T07:17:01.203Z,101003.63
2022-12-16T07:22:22.359Z,101004.94
2022-12-16T07:27:42.628Z,101017.22
2022-12-16T07:33:08.292Z,101027.31
2022-12-16T07:38:28.594Z,101032.50
2022-12-16T07:43:48.778Z,101042.28
2022-12-16T07:49:10.556Z,101060.41
2022-12-16T07:54:31.947Z,101068.75
2022-12-16T07:59:54.281Z,101067.28
2022-12-16T08:05:15.814Z,101078.88
2022-12-16T08:10:36.173Z,101084.53
2022-12-16T08:15:56.678Z,101093.81
2022-12-16T08:21:18.322Z,101106.94
2022-12-16T08:26:39.072Z,101107.88
2022-12-16T08:31:59.689Z,101119.81
2022-12-16T08:37:21.835Z,101129.06
2022-12-16T08:42:42.317Z,101140.91
2022-12-16T08:48:02.570Z,101149.81
2022-12-16T08:53:24.624Z,101151.63
2022-12-16T08:58:44.787Z,101151.28
2022-12-16T09:04:16.643Z,101153.81
2022-12-16T09:09:40.708Z,101162.16
2022-12-16T09:15:00.890Z,101161.78
2022-12-16T09:20:21.290Z,101175.97
2022-12-16T09:25:42.733Z,101177.59
2022-12-16T09:31:02.949Z,101187.44
2022-12-16T09:36:23.536Z,101193.06
2022-12-16T09:41:59.549Z,101202.69
2022-12-16T09:47:29.278Z,101198.69
2022-12-16T09:52:54.929Z,101205.97
2022-12-16T09:58:17.956Z,101209.59
2022-12-16T10:03:43.090Z,101208.69
2022-12-16T10:09:11.986Z,101213.94
2022-12-16T10:14:42.368Z,101222.69
2022-12-16T10:20:13.495Z,101225.75
2022-12-16T10:25:44.425Z,101229.19
2022-12-16T10:31:07.194Z,101227.91
2022-12-16T10:36:32.519Z,101235.03
2022-12-16T10:41:54.722Z,101234.28
2022-12-16T10:47:17.532Z,101239.38
2022-12-16T10:53:03.455Z,101239.16
2022-12-16T10:58:35.893Z,101230.28
2022-12-16T11:03:59.125Z,101233.56
2022-12-16T11:09:48.460Z,101237.19
2022-12-16T11:15:29.323Z,101233.34
2022-12-16T11:21:32.797Z,101226.44
2022-12-16T11:27:35.542Z,101236.09
2022-12-16T11:33:02.458Z,101237.69
2022-12-16T11:38:49.074Z,101234.28
2022-12-16T11:44:11.249Z,101239.72
2022-12-16T11:49:39.371Z,101249.16
2022-12-16T11:55:12.821Z,101245.91
2022-12-16T12:00:35.019Z,101252.63
2022-12-16T12:05:59.751Z,101249.56
2022-12-16T12:11:32.196Z,101258.63
2022-12-16T12:17:05.809Z,101255.00
2022-12-16T12:22:33.187Z,101269.53
2022-12-16T12:28:06.715Z,101275.66
2022-12-16T12:33:49.156Z,101268.44
2022-12-16T12:39:21.252Z,101279.16
2022-12-16T12:44:57.510Z,101280.63
2022-12-16T12:50:23.418Z,101293.16
2022-12-16T12:55:53.589Z,101295.19
2022-12-16T13:01:17.870Z,101287.91
2022-12-16T13:06:38.755Z,101291.00
2022-12-16T13:12:37.623Z,101304.44
2022-12-16T13:18:39.130Z,101306.81
2022-12-16T13:24:01.425Z,101308.06
2022-12-16T13:29:36.689Z,101313.16
2022-12-16T13:34:58.211Z,101322.97
2022-12-16T13:40:25.182Z,101319.91
2022-12-16T13:45:51.016Z,101324.19
2022-12-16T13:51:18.933Z,101321.84
2022-12-16T13:56:45.008Z,101332.38
2022-12-16T14:02:11.776Z,101333.38
2022-12-16T14:07:45.737Z,101350.72
2022-12-16T14:13:15.037Z,101354.44
2022-12-16T14:18:46.203Z,101352.41
2022-12-16T14:24:11.966Z,101359.28
2022-12-16T14:29:39.760Z,101352.63
2022-12-16T14:34:59.819Z,101368.19
2022-12-16T14:40:22.670Z,101382.56
2022-12-16T14:45:48.010Z,101376.44
2022-12-16T14:51:08.215Z,101378.88
2022-12-16T14:56:34.666Z,101385.59
2022-12-16T15:01:54.983Z,101386.69
2022-12-16T15:07:15.832Z,101392.16
2022-12-16T15:12:41.152Z,101392.59
2022-12-16T15:18:07.064Z,101406.47
2022-12-16T15:23:39.279Z,101423.25
2022-12-16T15:29:02.875Z,101437.03
2022-12-16T15:34:40.636Z,101450.47
2022-12-16T15:40:01.237Z,101449.91
2022-12-16T15:45:24.110Z,101465.88
2022-12-16T15:50:46.458Z,101477.22
2022-12-16T15:56:14.380Z,101473.53
2022-12-16T16:01:56.314Z,101479.84
2022-12-16T16:07:20.349Z,101484.44
2022-12-16T16:12:42.273Z,101489.59
2022-12-16T16:18:07.390Z,101495.75
2022-12-16T16:23:28.062Z,101500.63
2022-12-16T16:28:48.574Z,101498.75
2022-12-16T16:34:10.495Z,101503.53
2022-12-16T16:39:30.972Z,101515.41
2022-12-16T16:44:51.161Z,101517.69
2022-12-16T16:50:18.981Z,101514.84
2022-12-16T16:55:42.766Z,101521.03
2022-12-16T17:01:02.980Z,101523.75
2022-12-16T17:06:25.186Z,101523.03
2022-12-16T17:11:47.385Z,101531.31
2022-12-16T17:17:07.710Z,101534.91
2022-12-16T17:22:29.403Z,101540.56
2022-12-16T17:27:49.558Z,101546.31
2022-12-16T17:33:09.932Z,101548.03
2022-12-16T17:38:37.703Z,101555.25
2022-12-16T17:43:57.939Z,101555.03
2022-12-16T17:49:18.389Z,101558.00
2022-12-16T17:54:40.592Z,101570.38
2022-12-16T18:00:04.531Z,101580.13
2022-12-16T18:05:38.876Z,101577.63
2022-12-16T18:11:04.748Z,101593.56
2022-12-16T18:16:25.109Z,101602.13
2022-12-16T18:21:45.379Z,101594.16
2022-12-16T18:27:07.119Z,101600.47
2022-12-16T18:32:35.086Z,101608.69
2022-12-16T18:37:55.527Z,101606.94
2022-12-16T18:43:20.107Z,101614.88
2022-12-16T18:48:40.342Z,101617.00
2022-12-16T18:54:00.565Z,101614.00
2022-12-16T18:59:22.454Z,101632.41
2022-12-16T19:04:43.062Z,101627.78
2022-12-16T19:10:03.279Z,101632.25
2022-12-16T19:15:26.670Z,101633.56
2022-12-16T19:20:46.917Z,101632.34
2022-12-16T19:26:07.139Z,101630.38
2022-12-16T19:31:32.664Z,101640.28
2022-12-16T19:36:53.130Z,101637.50
2022-12-16T19:42:13.925Z,101648.69
2022-12-16T19:47:35.844Z,101649.22
2022-12-16T19:52:56.189Z,101653.53
2022-12-16T19:58:27.795Z,101666.69
2022-12-16T20:03:50.270Z,101666.72
2022-12-16T20:09:11.619Z,101664.75
2022-12-16T20:14:31.811Z,101671.38
2022-12-16T20:19:53.399Z,101678.97
2022-12-16T20:25:16.696Z,101686.59
2022-12-16T20:30:37.541Z,101687.38
2022-12-16T20:36:14.007Z,101688.03
2022-12-16T20:41:34.593Z,101696.84
2022-12-16T20:52:37.491Z,101720.75
2022-12-16T20:57:57.982Z,101727.44
2022-12-16T21:03:18.819Z,101729.81
2022-12-16T21:08:40.256Z,101739.91
2022-12-16T21:13:57.007Z,101735.09
2022-12-16T21:14:42.531Z,101701.38
2022-12-16T21:19:17.521Z,101729.44
2022-12-16T21:24:39.072Z,101743.91
2022-12-16T21:29:59.371Z,101743.44
2022-12-16T21:35:19.658Z,101745.53
2022-12-16T21:40:43.610Z,101749.97
2022-12-16T21:46:11.266Z,101747.47
2022-12-16T21:51:32.515Z,101755.81
2022-12-16T21:56:56.320Z,101756.88
2022-12-16T22:02:17.594Z,101771.66
2022-12-16T22:07:38.025Z,101765.91
2022-12-16T22:12:59.526Z,101768.72
2022-12-16T22:18:20.321Z,101767.03
2022-12-16T22:23:41.065Z,101776.34
2022-12-16T22:29:03.895Z,101776.34
2022-12-16T22:34:25.622Z,101775.50
2022-12-16T22:39:45.891Z,101776.72
2022-12-16T22:45:07.246Z,101769.94
2022-12-16T22:50:27.993Z,101781.69
2022-12-16T22:55:48.324Z,101794.59
2022-12-16T23:01:09.852Z,101786.88
2022-12-16T23:06:30.342Z,101794.56
2022-12-16T23:11:53.403Z,101786.13
2022-12-16T23:17:18.567Z,101790.91
2022-12-16T23:22:38.790Z,101791.56
2022-12-16T23:27:58.968Z,101802.44
2022-12-16T23:33:21.423Z,101799.88
2022-12-16T23:38:41.529Z,101807.41
2022-12-16T23:44:02.230Z,101804.81
2022-12-16T23:49:24.052Z,101804.19
2022-12-16T23:54:44.340Z,101817.16
